sensor_id;sensor_type;location;lat;lon;timestamp;P1;durP1;ratioP1;P2;durP2;ratioP2
26201;SDS011;13944;28.562;77.188;2022-07-23T00:02:16;41.80;;;30.92;;
26201;SDS011;13944;28.562;77.188;2022-07-23T00:04:45;38.88;;;30.73;;
26201;SDS011;13944;28.562;77.188;2022-07-23T00:07:12;40.95;;;31.17;;
26201;SDS011;13944;28.562;77.188;2022-07-23T00:09:39;38.92;;;30.92;;
26201;SDS011;13944;28.562;77.188;2022-07-23T00:12:05;37.58;;;30.10;;
26201;SDS011;13944;28.562;77.188;2022-07-23T00:14:32;41.47;;;30.95;;
26201;SDS011;13944;28.562;77.188;2022-07-23T00:16:59;42.25;;;31.33;;
26201;SDS011;13944;28.562;77.188;2022-07-23T00:19:25;38.90;;;29.73;;
26201;SDS011;13944;28.562;77.188;2022-07-23T00:21:52;37.58;;;29.20;;
26201;SDS011;13944;28.562;77.188;2022-07-23T00:24:18;38.45;;;28.00;;
26201;SDS011;13944;28.562;77.188;2022-07-23T00:26:45;41.90;;;30.02;;
26201;SDS011;13944;28.562;77.188;2022-07-23T00:29:11;39.28;;;30.35;;
26201;SDS011;13944;28.562;77.188;2022-07-23T00:31:38;41.40;;;31.65;;
26201;SDS011;13944;28.562;77.188;2022-07-23T00:34:05;41.92;;;31.23;;
26201;SDS011;13944;28.562;77.188;2022-07-23T00:36:31;43.45;;;31.02;;
26201;SDS011;13944;28.562;77.188;2022-07-23T00:38:58;40.38;;;30.98;;
26201;SDS011;13944;28.562;77.188;2022-07-23T00:41:24;42.53;;;31.92;;
26201;SDS011;13944;28.562;77.188;2022-07-23T00:43:51;42.67;;;34.05;;
26201;SDS011;13944;28.562;77.188;2022-07-23T00:46:21;43.53;;;33.85;;
26201;SDS011;13944;28.562;77.188;2022-07-23T00:48:48;53.08;;;38.95;;
26201;SDS011;13944;28.562;77.188;2022-07-23T00:51:15;58.63;;;42.63;;
26201;SDS011;13944;28.562;77.188;2022-07-23T00:53:42;54.40;;;43.55;;
26201;SDS011;13944;28.562;77.188;2022-07-23T00:56:08;62.45;;;44.60;;
26201;SDS011;13944;28.562;77.188;2022-07-23T00:58:35;55.92;;;42.13;;
26201;SDS011;13944;28.562;77.188;2022-07-23T01:01:01;54.20;;;41.40;;
26201;SDS011;13944;28.562;77.188;2022-07-23T01:03:28;50.42;;;37.97;;
26201;SDS011;13944;28.562;77.188;2022-07-23T01:05:55;52.20;;;39.08;;
26201;SDS011;13944;28.562;77.188;2022-07-23T01:08:22;49.03;;;38.08;;
26201;SDS011;13944;28.562;77.188;2022-07-23T01:10:48;44.15;;;35.92;;
26201;SDS011;13944;28.562;77.188;2022-07-23T01:13:15;51.50;;;39.30;;
26201;SDS011;13944;28.562;77.188;2022-07-23T01:15:41;51.22;;;39.95;;
26201;SDS011;13944;28.562;77.188;2022-07-23T01:18:08;45.88;;;37.50;;
26201;SDS011;13944;28.562;77.188;2022-07-23T01:20:35;44.85;;;34.65;;
26201;SDS011;13944;28.562;77.188;2022-07-23T01:23:01;43.10;;;34.65;;
26201;SDS011;13944;28.562;77.188;2022-07-23T01:25:28;45.33;;;33.88;;
26201;SDS011;13944;28.562;77.188;2022-07-23T01:27:54;41.60;;;32.72;;
26201;SDS011;13944;28.562;77.188;2022-07-23T01:30:21;42.70;;;34.88;;
26201;SDS011;13944;28.562;77.188;2022-07-23T01:32:47;60.63;;;42.20;;
26201;SDS011;13944;28.562;77.188;2022-07-23T01:35:14;61.38;;;45.20;;
26201;SDS011;13944;28.562;77.188;2022-07-23T01:37:41;67.40;;;46.70;;
26201;SDS011;13944;28.562;77.188;2022-07-23T01:40:07;60.78;;;46.22;;
26201;SDS011;13944;28.562;77.188;2022-07-23T01:42:34;62.15;;;49.00;;
26201;SDS011;13944;28.562;77.188;2022-07-23T01:45:01;59.55;;;45.58;;
26201;SDS011;13944;28.562;77.188;2022-07-23T01:47:28;54.60;;;41.85;;
26201;SDS011;13944;28.562;77.188;2022-07-23T01:49:54;48.75;;;38.38;;
26201;SDS011;13944;28.562;77.188;2022-07-23T01:52:21;49.22;;;39.13;;
26201;SDS011;13944;28.562;77.188;2022-07-23T01:54:47;46.53;;;37.08;;
26201;SDS011;13944;28.562;77.188;2022-07-23T01:57:14;45.72;;;36.00;;
26201;SDS011;13944;28.562;77.188;2022-07-23T01:59:41;50.15;;;36.70;;
26201;SDS011;13944;28.562;77.188;2022-07-23T02:02:07;44.22;;;35.08;;
26201;SDS011;13944;28.562;77.188;2022-07-23T02:04:34;45.47;;;35.70;;
26201;SDS011;13944;28.562;77.188;2022-07-23T02:07:01;58.22;;;46.35;;
26201;SDS011;13944;28.562;77.188;2022-07-23T02:09:28;61.63;;;49.72;;
26201;SDS011;13944;28.562;77.188;2022-07-23T02:11:55;71.78;;;55.95;;
26201;SDS011;13944;28.562;77.188;2022-07-23T02:14:21;72.25;;;55.22;;
26201;SDS011;13944;28.562;77.188;2022-07-23T02:16:48;69.97;;;55.47;;
26201;SDS011;13944;28.562;77.188;2022-07-23T02:19:14;71.10;;;52.15;;
26201;SDS011;13944;28.562;77.188;2022-07-23T02:21:41;70.65;;;52.83;;
26201;SDS011;13944;28.562;77.188;2022-07-23T02:24:26;63.13;;;49.17;;
26201;SDS011;13944;28.562;77.188;2022-07-23T02:26:52;64.38;;;48.30;;
26201;SDS011;13944;28.562;77.188;2022-07-23T02:29:19;57.28;;;43.65;;
26201;SDS011;13944;28.562;77.188;2022-07-23T02:31:45;53.45;;;42.75;;
26201;SDS011;13944;28.562;77.188;2022-07-23T02:34:12;58.15;;;43.08;;
26201;SDS011;13944;28.562;77.188;2022-07-23T02:36:39;53.65;;;43.13;;
26201;SDS011;13944;28.562;77.188;2022-07-23T02:39:05;56.13;;;42.17;;
26201;SDS011;13944;28.562;77.188;2022-07-23T02:41:32;69.95;;;54.47;;
26201;SDS011;13944;28.562;77.188;2022-07-23T02:43:58;75.78;;;58.85;;
26201;SDS011;13944;28.562;77.188;2022-07-23T02:46:25;79.38;;;61.53;;
26201;SDS011;13944;28.562;77.188;2022-07-23T02:48:51;83.47;;;62.83;;
26201;SDS011;13944;28.562;77.188;2022-07-23T02:51:18;76.60;;;58.45;;
26201;SDS011;13944;28.562;77.188;2022-07-23T02:53:45;78.25;;;59.92;;
26201;SDS011;13944;28.562;77.188;2022-07-23T02:56:11;76.63;;;56.88;;
26201;SDS011;13944;28.562;77.188;2022-07-23T02:58:38;71.57;;;53.33;;
26201;SDS011;13944;28.562;77.188;2022-07-23T03:01:05;64.40;;;47.55;;
26201;SDS011;13944;28.562;77.188;2022-07-23T03:03:32;54.53;;;42.75;;
26201;SDS011;13944;28.562;77.188;2022-07-23T03:05:58;51.95;;;42.22;;
26201;SDS011;13944;28.562;77.188;2022-07-23T03:08:25;58.10;;;42.97;;
26201;SDS011;13944;28.562;77.188;2022-07-23T03:10:51;53.70;;;41.63;;
26201;SDS011;13944;28.562;77.188;2022-07-23T03:13:18;53.13;;;40.55;;
26201;SDS011;13944;28.562;77.188;2022-07-23T03:15:44;54.78;;;42.22;;
26201;SDS011;13944;28.562;77.188;2022-07-23T03:18:11;53.97;;;40.75;;
26201;SDS011;13944;28.562;77.188;2022-07-23T03:20:38;52.25;;;41.03;;
26201;SDS011;13944;28.562;77.188;2022-07-23T03:23:04;51.95;;;39.63;;
26201;SDS011;13944;28.562;77.188;2022-07-23T03:25:31;55.40;;;42.53;;
26201;SDS011;13944;28.562;77.188;2022-07-23T03:27:58;52.75;;;42.63;;
26201;SDS011;13944;28.562;77.188;2022-07-23T03:30:24;52.58;;;41.80;;
26201;SDS011;13944;28.562;77.188;2022-07-23T03:32:51;56.33;;;43.88;;
26201;SDS011;13944;28.562;77.188;2022-07-23T03:35:17;56.53;;;42.90;;
26201;SDS011;13944;28.562;77.188;2022-07-23T03:37:44;54.33;;;40.95;;
26201;SDS011;13944;28.562;77.188;2022-07-23T03:40:11;50.47;;;40.60;;
26201;SDS011;13944;28.562;77.188;2022-07-23T03:42:37;56.13;;;45.30;;
26201;SDS011;13944;28.562;77.188;2022-07-23T03:45:06;53.20;;;42.83;;
26201;SDS011;13944;28.562;77.188;2022-07-23T03:47:33;54.83;;;44.17;;
26201;SDS011;13944;28.562;77.188;2022-07-23T03:49:59;52.40;;;42.65;;
26201;SDS011;13944;28.562;77.188;2022-07-23T03:52:26;55.05;;;44.67;;
26201;SDS011;13944;28.562;77.188;2022-07-23T03:54:52;57.75;;;44.58;;
26201;SDS011;13944;28.562;77.188;2022-07-23T03:57:19;51.75;;;43.17;;
26201;SDS011;13944;28.562;77.188;2022-07-23T03:59:45;51.20;;;43.53;;
26201;SDS011;13944;28.562;77.188;2022-07-23T04:02:12;54.30;;;43.63;;
26201;SDS011;13944;28.562;77.188;2022-07-23T04:04:39;51.10;;;42.00;;
26201;SDS011;13944;28.562;77.188;2022-07-23T04:07:05;54.05;;;42.80;;
26201;SDS011;13944;28.562;77.188;2022-07-23T04:09:33;52.55;;;42.85;;
26201;SDS011;13944;28.562;77.188;2022-07-23T04:12:02;52.22;;;43.47;;
26201;SDS011;13944;28.562;77.188;2022-07-23T04:14:29;53.65;;;42.95;;
26201;SDS011;13944;28.562;77.188;2022-07-23T04:16:56;48.17;;;41.30;;
26201;SDS011;13944;28.562;77.188;2022-07-23T04:19:22;47.90;;;41.97;;
26201;SDS011;13944;28.562;77.188;2022-07-23T04:21:49;45.28;;;39.78;;
26201;SDS011;13944;28.562;77.188;2022-07-23T04:24:15;49.70;;;39.63;;
26201;SDS011;13944;28.562;77.188;2022-07-23T04:26:42;44.45;;;38.20;;
26201;SDS011;13944;28.562;77.188;2022-07-23T04:29:09;47.50;;;38.30;;
26201;SDS011;13944;28.562;77.188;2022-07-23T04:31:35;43.63;;;37.80;;
26201;SDS011;13944;28.562;77.188;2022-07-23T04:34:02;46.25;;;39.33;;
26201;SDS011;13944;28.562;77.188;2022-07-23T04:36:29;48.45;;;43.10;;
26201;SDS011;13944;28.562;77.188;2022-07-23T04:38:56;48.58;;;41.15;;
26201;SDS011;13944;28.562;77.188;2022-07-23T04:41:22;46.85;;;39.92;;
26201;SDS011;13944;28.562;77.188;2022-07-23T04:43:49;44.22;;;38.80;;
26201;SDS011;13944;28.562;77.188;2022-07-23T04:46:15;46.90;;;39.22;;
26201;SDS011;13944;28.562;77.188;2022-07-23T04:48:42;48.40;;;38.20;;
26201;SDS011;13944;28.562;77.188;2022-07-23T04:51:08;43.50;;;38.53;;
26201;SDS011;13944;28.562;77.188;2022-07-23T04:53:36;45.70;;;37.92;;
26201;SDS011;13944;28.562;77.188;2022-07-23T04:56:03;42.53;;;37.90;;
26201;SDS011;13944;28.562;77.188;2022-07-23T04:58:30;42.53;;;36.88;;
26201;SDS011;13944;28.562;77.188;2022-07-23T05:00:57;49.22;;;38.53;;
26201;SDS011;13944;28.562;77.188;2022-07-23T05:03:23;45.97;;;38.53;;
26201;SDS011;13944;28.562;77.188;2022-07-23T05:05:50;45.00;;;39.67;;
26201;SDS011;13944;28.562;77.188;2022-07-23T05:08:16;46.30;;;39.30;;
26201;SDS011;13944;28.562;77.188;2022-07-23T05:10:43;46.67;;;39.13;;
26201;SDS011;13944;28.562;77.188;2022-07-23T05:13:09;45.30;;;40.15;;
26201;SDS011;13944;28.562;77.188;2022-07-23T05:15:36;48.50;;;39.15;;
26201;SDS011;13944;28.562;77.188;2022-07-23T05:18:03;48.25;;;40.33;;
26201;SDS011;13944;28.562;77.188;2022-07-23T05:20:29;50.38;;;39.85;;
26201;SDS011;13944;28.562;77.188;2022-07-23T05:22:56;45.22;;;39.70;;
26201;SDS011;13944;28.562;77.188;2022-07-23T05:25:22;49.22;;;40.65;;
26201;SDS011;13944;28.562;77.188;2022-07-23T05:27:49;46.20;;;39.22;;
26201;SDS011;13944;28.562;77.188;2022-07-23T05:30:15;52.45;;;38.55;;
26201;SDS011;13944;28.562;77.188;2022-07-23T05:32:42;46.28;;;38.30;;
26201;SDS011;13944;28.562;77.188;2022-07-23T05:35:09;46.80;;;38.15;;
26201;SDS011;13944;28.562;77.188;2022-07-23T05:37:35;47.00;;;39.05;;
26201;SDS011;13944;28.562;77.188;2022-07-23T05:40:03;46.70;;;38.83;;
26201;SDS011;13944;28.562;77.188;2022-07-23T05:42:31;46.75;;;39.72;;
26201;SDS011;13944;28.562;77.188;2022-07-23T05:44:58;47.70;;;38.75;;
26201;SDS011;13944;28.562;77.188;2022-07-23T05:47:24;44.40;;;38.53;;
26201;SDS011;13944;28.562;77.188;2022-07-23T05:49:51;46.08;;;39.63;;
26201;SDS011;13944;28.562;77.188;2022-07-23T05:52:17;48.55;;;41.08;;
26201;SDS011;13944;28.562;77.188;2022-07-23T05:54:44;50.58;;;43.25;;
26201;SDS011;13944;28.562;77.188;2022-07-23T05:57:11;56.45;;;45.95;;
26201;SDS011;13944;28.562;77.188;2022-07-23T05:59:37;52.60;;;44.40;;
26201;SDS011;13944;28.562;77.188;2022-07-23T06:02:04;53.30;;;43.83;;
26201;SDS011;13944;28.562;77.188;2022-07-23T06:04:30;51.05;;;42.15;;
26201;SDS011;13944;28.562;77.188;2022-07-23T06:06:57;51.85;;;42.42;;
26201;SDS011;13944;28.562;77.188;2022-07-23T06:09:23;46.83;;;41.63;;
26201;SDS011;13944;28.562;77.188;2022-07-23T06:11:50;50.30;;;39.28;;
26201;SDS011;13944;28.562;77.188;2022-07-23T06:14:16;42.97;;;38.30;;
26201;SDS011;13944;28.562;77.188;2022-07-23T06:16:43;43.90;;;38.53;;
26201;SDS011;13944;28.562;77.188;2022-07-23T06:19:09;43.78;;;36.30;;
26201;SDS011;13944;28.562;77.188;2022-07-23T06:21:36;41.05;;;36.63;;
26201;SDS011;13944;28.562;77.188;2022-07-23T06:24:02;44.72;;;36.50;;
26201;SDS011;13944;28.562;77.188;2022-07-23T06:26:29;41.53;;;35.22;;
26201;SDS011;13944;28.562;77.188;2022-07-23T06:28:56;41.28;;;35.50;;
26201;SDS011;13944;28.562;77.188;2022-07-23T06:31:22;39.70;;;34.03;;
26201;SDS011;13944;28.562;77.188;2022-07-23T06:33:49;41.00;;;32.65;;
26201;SDS011;13944;28.562;77.188;2022-07-23T06:36:15;42.42;;;31.15;;
26201;SDS011;13944;28.562;77.188;2022-07-23T06:38:42;40.08;;;31.13;;
26201;SDS011;13944;28.562;77.188;2022-07-23T06:41:08;35.35;;;29.17;;
26201;SDS011;13944;28.562;77.188;2022-07-23T06:43:35;31.13;;;27.77;;
26201;SDS011;13944;28.562;77.188;2022-07-23T06:46:01;35.25;;;28.42;;
26201;SDS011;13944;28.562;77.188;2022-07-23T06:48:28;32.05;;;26.92;;
26201;SDS011;13944;28.562;77.188;2022-07-23T06:50:55;31.50;;;27.00;;
26201;SDS011;13944;28.562;77.188;2022-07-23T06:53:21;32.25;;;27.02;;
26201;SDS011;13944;28.562;77.188;2022-07-23T06:55:48;31.40;;;25.52;;
26201;SDS011;13944;28.562;77.188;2022-07-23T06:58:14;29.77;;;26.55;;
26201;SDS011;13944;28.562;77.188;2022-07-23T07:00:41;28.90;;;25.80;;
26201;SDS011;13944;28.562;77.188;2022-07-23T07:03:07;28.60;;;24.77;;
26201;SDS011;13944;28.562;77.188;2022-07-23T07:05:34;28.17;;;24.80;;
26201;SDS011;13944;28.562;77.188;2022-07-23T07:08:00;26.02;;;22.95;;
26201;SDS011;13944;28.562;77.188;2022-07-23T07:10:27;25.67;;;22.17;;
26201;SDS011;13944;28.562;77.188;2022-07-23T07:12:53;28.27;;;23.05;;
26201;SDS011;13944;28.562;77.188;2022-07-23T07:15:20;28.40;;;23.98;;
26201;SDS011;13944;28.562;77.188;2022-07-23T07:17:47;28.55;;;22.95;;
26201;SDS011;13944;28.562;77.188;2022-07-23T07:20:13;29.05;;;23.10;;
26201;SDS011;13944;28.562;77.188;2022-07-23T07:22:40;24.23;;;21.63;;
26201;SDS011;13944;28.562;77.188;2022-07-23T07:25:07;25.50;;;21.48;;
26201;SDS011;13944;28.562;77.188;2022-07-23T07:27:34;28.67;;;19.77;;
26201;SDS011;13944;28.562;77.188;2022-07-23T07:30:01;23.20;;;19.60;;
26201;SDS011;13944;28.562;77.188;2022-07-23T07:32:27;23.25;;;18.83;;
26201;SDS011;13944;28.562;77.188;2022-07-23T07:34:54;20.83;;;18.35;;
26201;SDS011;13944;28.562;77.188;2022-07-23T07:37:21;23.27;;;17.13;;
26201;SDS011;13944;28.562;77.188;2022-07-23T07:39:48;21.98;;;18.10;;
26201;SDS011;13944;28.562;77.188;2022-07-23T07:42:14;20.15;;;17.45;;
26201;SDS011;13944;28.562;77.188;2022-07-23T07:44:41;21.35;;;19.00;;
26201;SDS011;13944;28.562;77.188;2022-07-23T07:47:07;24.48;;;19.80;;
26201;SDS011;13944;28.562;77.188;2022-07-23T07:49:34;27.92;;;20.90;;
26201;SDS011;13944;28.562;77.188;2022-07-23T07:52:00;26.90;;;20.95;;
26201;SDS011;13944;28.562;77.188;2022-07-23T07:54:27;27.23;;;20.45;;
26201;SDS011;13944;28.562;77.188;2022-07-23T07:56:53;23.58;;;20.45;;
26201;SDS011;13944;28.562;77.188;2022-07-23T07:59:20;29.27;;;22.15;;
26201;SDS011;13944;28.562;77.188;2022-07-23T08:01:46;23.67;;;21.00;;
26201;SDS011;13944;28.562;77.188;2022-07-23T08:04:13;24.38;;;20.60;;
26201;SDS011;13944;28.562;77.188;2022-07-23T08:06:39;26.17;;;22.02;;
26201;SDS011;13944;28.562;77.188;2022-07-23T08:09:06;25.40;;;21.55;;
26201;SDS011;13944;28.562;77.188;2022-07-23T08:11:32;25.60;;;21.65;;
26201;SDS011;13944;28.562;77.188;2022-07-23T08:13:59;25.05;;;21.48;;
26201;SDS011;13944;28.562;77.188;2022-07-23T08:16:26;23.70;;;20.67;;
26201;SDS011;13944;28.562;77.188;2022-07-23T08:18:52;24.85;;;20.50;;
26201;SDS011;13944;28.562;77.188;2022-07-23T08:21:19;26.05;;;20.00;;
26201;SDS011;13944;28.562;77.188;2022-07-23T08:23:45;26.48;;;19.55;;
26201;SDS011;13944;28.562;77.188;2022-07-23T08:26:12;23.27;;;18.95;;
26201;SDS011;13944;28.562;77.188;2022-07-23T08:28:38;24.00;;;19.38;;
26201;SDS011;13944;28.562;77.188;2022-07-23T08:31:05;26.73;;;19.48;;
26201;SDS011;13944;28.562;77.188;2022-07-23T08:33:32;28.65;;;19.63;;
26201;SDS011;13944;28.562;77.188;2022-07-23T08:35:58;24.52;;;20.05;;
26201;SDS011;13944;28.562;77.188;2022-07-23T08:38:25;23.77;;;18.77;;
26201;SDS011;13944;28.562;77.188;2022-07-23T08:40:54;29.15;;;20.40;;
26201;SDS011;13944;28.562;77.188;2022-07-23T08:43:23;23.45;;;20.15;;
26201;SDS011;13944;28.562;77.188;2022-07-23T08:45:51;26.13;;;21.88;;
26201;SDS011;13944;28.562;77.188;2022-07-23T08:48:22;29.58;;;23.23;;
26201;SDS011;13944;28.562;77.188;2022-07-23T08:50:50;27.83;;;23.88;;
26201;SDS011;13944;28.562;77.188;2022-07-23T08:53:18;31.70;;;25.23;;
26201;SDS011;13944;28.562;77.188;2022-07-23T08:55:48;33.22;;;24.98;;
26201;SDS011;13944;28.562;77.188;2022-07-23T08:58:15;30.00;;;25.90;;
26201;SDS011;13944;28.562;77.188;2022-07-23T09:00:42;30.83;;;26.33;;
26201;SDS011;13944;28.562;77.188;2022-07-23T09:03:18;31.90;;;26.35;;
26201;SDS011;13944;28.562;77.188;2022-07-23T09:05:45;34.42;;;27.50;;
26201;SDS011;13944;28.562;77.188;2022-07-23T09:08:15;34.80;;;27.98;;
26201;SDS011;13944;28.562;77.188;2022-07-23T09:10:50;39.78;;;28.30;;
26201;SDS011;13944;28.562;77.188;2022-07-23T09:13:33;34.63;;;27.70;;
26201;SDS011;13944;28.562;77.188;2022-07-23T09:16:01;35.42;;;26.75;;
26201;SDS011;13944;28.562;77.188;2022-07-23T09:18:29;34.30;;;29.70;;
26201;SDS011;13944;28.562;77.188;2022-07-23T09:21:06;38.33;;;31.85;;
26201;SDS011;13944;28.562;77.188;2022-07-23T09:28:51;36.63;;;28.60;;
26201;SDS011;13944;28.562;77.188;2022-07-23T09:31:18;37.80;;;28.95;;
26201;SDS011;13944;28.562;77.188;2022-07-23T09:33:45;34.22;;;28.48;;
26201;SDS011;13944;28.562;77.188;2022-07-23T09:36:11;34.53;;;29.55;;
26201;SDS011;13944;28.562;77.188;2022-07-23T09:38:48;33.10;;;28.20;;
26201;SDS011;13944;28.562;77.188;2022-07-23T09:41:15;35.85;;;29.80;;
26201;SDS011;13944;28.562;77.188;2022-07-23T09:43:42;35.38;;;27.67;;
26201;SDS011;13944;28.562;77.188;2022-07-23T09:46:25;37.88;;;28.17;;
26201;SDS011;13944;28.562;77.188;2022-07-23T09:48:55;39.50;;;28.50;;
26201;SDS011;13944;28.562;77.188;2022-07-23T09:51:22;37.22;;;28.88;;
26201;SDS011;13944;28.562;77.188;2022-07-23T09:54:05;36.20;;;28.73;;
26201;SDS011;13944;28.562;77.188;2022-07-23T09:56:31;42.25;;;29.65;;
26201;SDS011;13944;28.562;77.188;2022-07-23T09:58:59;35.63;;;28.85;;
26201;SDS011;13944;28.562;77.188;2022-07-23T10:01:43;38.92;;;28.67;;
26201;SDS011;13944;28.562;77.188;2022-07-23T10:04:10;39.38;;;29.65;;
26201;SDS011;13944;28.562;77.188;2022-07-23T10:06:40;55.42;;;31.67;;
26201;SDS011;13944;28.562;77.188;2022-07-23T10:09:07;42.17;;;29.30;;
26201;SDS011;13944;28.562;77.188;2022-07-23T10:11:35;42.05;;;29.52;;
26201;SDS011;13944;28.562;77.188;2022-07-23T10:14:02;42.33;;;29.73;;
26201;SDS011;13944;28.562;77.188;2022-07-23T10:16:30;36.90;;;29.55;;
26201;SDS011;13944;28.562;77.188;2022-07-23T10:18:57;40.45;;;28.98;;
26201;SDS011;13944;28.562;77.188;2022-07-23T10:21:47;37.83;;;27.55;;
26201;SDS011;13944;28.562;77.188;2022-07-23T10:39:33;35.45;;;28.58;;
26201;SDS011;13944;28.562;77.188;2022-07-23T10:42:10;37.05;;;29.17;;
26201;SDS011;13944;28.562;77.188;2022-07-23T10:44:43;38.90;;;29.55;;
26201;SDS011;13944;28.562;77.188;2022-07-23T10:47:11;32.78;;;28.35;;
26201;SDS011;13944;28.562;77.188;2022-07-23T10:49:41;32.65;;;28.98;;
26201;SDS011;13944;28.562;77.188;2022-07-23T10:54:41;39.78;;;30.48;;
26201;SDS011;13944;28.562;77.188;2022-07-23T10:57:07;36.53;;;30.02;;
26201;SDS011;13944;28.562;77.188;2022-07-23T11:02:23;36.63;;;30.15;;
26201;SDS011;13944;28.562;77.188;2022-07-23T11:04:51;40.17;;;32.80;;
26201;SDS011;13944;28.562;77.188;2022-07-23T11:07:18;40.78;;;32.70;;
26201;SDS011;13944;28.562;77.188;2022-07-23T11:09:45;42.97;;;32.15;;
26201;SDS011;13944;28.562;77.188;2022-07-23T11:17:25;36.58;;;30.70;;
26201;SDS011;13944;28.562;77.188;2022-07-23T11:25:13;36.40;;;31.20;;
26201;SDS011;13944;28.562;77.188;2022-07-23T11:28:08;39.35;;;30.52;;
26201;SDS011;13944;28.562;77.188;2022-07-23T11:35:34;38.47;;;30.48;;
26201;SDS011;13944;28.562;77.188;2022-07-23T11:38:08;38.33;;;28.85;;
26201;SDS011;13944;28.562;77.188;2022-07-23T11:40:39;36.38;;;29.65;;
26201;SDS011;13944;28.562;77.188;2022-07-23T11:43:07;35.67;;;29.80;;
26201;SDS011;13944;28.562;77.188;2022-07-23T11:45:35;37.08;;;29.98;;
26201;SDS011;13944;28.562;77.188;2022-07-23T11:48:02;35.90;;;29.65;;
26201;SDS011;13944;28.562;77.188;2022-07-23T11:50:29;36.13;;;29.10;;
26201;SDS011;13944;28.562;77.188;2022-07-23T11:52:56;38.10;;;31.65;;
26201;SDS011;13944;28.562;77.188;2022-07-23T11:55:23;42.72;;;31.77;;
26201;SDS011;13944;28.562;77.188;2022-07-23T11:57:50;36.40;;;32.50;;
26201;SDS011;13944;28.562;77.188;2022-07-23T12:00:21;39.28;;;32.47;;
26201;SDS011;13944;28.562;77.188;2022-07-23T12:02:49;38.72;;;32.70;;
26201;SDS011;13944;28.562;77.188;2022-07-23T12:05:16;39.10;;;33.90;;
26201;SDS011;13944;28.562;77.188;2022-07-23T12:07:44;39.35;;;35.05;;
26201;SDS011;13944;28.562;77.188;2022-07-23T12:10:16;44.58;;;35.88;;
26201;SDS011;13944;28.562;77.188;2022-07-23T12:12:44;43.97;;;34.60;;
26201;SDS011;13944;28.562;77.188;2022-07-23T12:15:12;45.42;;;35.15;;
26201;SDS011;13944;28.562;77.188;2022-07-23T12:17:40;45.00;;;33.78;;
26201;SDS011;13944;28.562;77.188;2022-07-23T12:20:08;48.05;;;35.08;;
26201;SDS011;13944;28.562;77.188;2022-07-23T12:22:39;41.75;;;33.28;;
26201;SDS011;13944;28.562;77.188;2022-07-23T12:25:07;38.30;;;32.95;;
26201;SDS011;13944;28.562;77.188;2022-07-23T12:27:34;37.15;;;32.58;;
26201;SDS011;13944;28.562;77.188;2022-07-23T12:32:47;38.25;;;31.70;;
26201;SDS011;13944;28.562;77.188;2022-07-23T12:35:14;39.30;;;33.08;;
26201;SDS011;13944;28.562;77.188;2022-07-23T12:37:42;46.17;;;33.15;;
26201;SDS011;13944;28.562;77.188;2022-07-23T12:40:18;41.17;;;33.33;;
26201;SDS011;13944;28.562;77.188;2022-07-23T12:42:46;40.63;;;34.35;;
26201;SDS011;13944;28.562;77.188;2022-07-23T12:45:14;41.95;;;34.67;;
26201;SDS011;13944;28.562;77.188;2022-07-23T12:47:50;41.85;;;33.97;;
26201;SDS011;13944;28.562;77.188;2022-07-23T12:53:05;39.75;;;33.03;;
26201;SDS011;13944;28.562;77.188;2022-07-23T12:55:32;39.67;;;32.67;;
26201;SDS011;13944;28.562;77.188;2022-07-23T12:58:03;42.80;;;31.75;;
26201;SDS011;13944;28.562;77.188;2022-07-23T13:00:32;41.30;;;30.27;;
26201;SDS011;13944;28.562;77.188;2022-07-23T13:02:58;37.03;;;30.13;;
26201;SDS011;13944;28.562;77.188;2022-07-23T13:05:25;36.63;;;28.48;;
26201;SDS011;13944;28.562;77.188;2022-07-23T13:07:51;33.20;;;27.50;;
26201;SDS011;13944;28.562;77.188;2022-07-23T13:10:18;37.70;;;29.45;;
26201;SDS011;13944;28.562;77.188;2022-07-23T13:12:45;32.72;;;28.42;;
26201;SDS011;13944;28.562;77.188;2022-07-23T13:15:11;37.30;;;28.60;;
26201;SDS011;13944;28.562;77.188;2022-07-23T13:17:38;32.90;;;27.42;;
26201;SDS011;13944;28.562;77.188;2022-07-23T13:20:04;34.75;;;28.38;;
26201;SDS011;13944;28.562;77.188;2022-07-23T13:22:31;37.40;;;29.30;;
26201;SDS011;13944;28.562;77.188;2022-07-23T13:24:58;37.70;;;29.98;;
26201;SDS011;13944;28.562;77.188;2022-07-23T13:27:24;37.13;;;28.90;;
26201;SDS011;13944;28.562;77.188;2022-07-23T13:29:51;41.97;;;30.20;;
26201;SDS011;13944;28.562;77.188;2022-07-23T13:32:17;40.75;;;29.15;;
26201;SDS011;13944;28.562;77.188;2022-07-23T13:34:44;40.53;;;28.00;;
26201;SDS011;13944;28.562;77.188;2022-07-23T13:37:10;39.25;;;26.90;;
26201;SDS011;13944;28.562;77.188;2022-07-23T13:39:38;36.92;;;28.15;;
26201;SDS011;13944;28.562;77.188;2022-07-23T13:42:25;35.28;;;27.65;;
26201;SDS011;13944;28.562;77.188;2022-07-23T13:44:52;34.90;;;27.17;;
26201;SDS011;13944;28.562;77.188;2022-07-23T13:47:19;37.67;;;27.23;;
26201;SDS011;13944;28.562;77.188;2022-07-23T13:49:46;34.38;;;28.05;;
26201;SDS011;13944;28.562;77.188;2022-07-23T13:52:12;38.38;;;28.38;;
26201;SDS011;13944;28.562;77.188;2022-07-23T13:54:39;34.67;;;28.08;;
26201;SDS011;13944;28.562;77.188;2022-07-23T13:57:05;39.25;;;28.02;;
26201;SDS011;13944;28.562;77.188;2022-07-23T13:59:34;38.70;;;28.13;;
26201;SDS011;13944;28.562;77.188;2022-07-23T14:02:02;35.03;;;27.38;;
26201;SDS011;13944;28.562;77.188;2022-07-23T14:04:28;39.47;;;28.55;;
26201;SDS011;13944;28.562;77.188;2022-07-23T14:06:55;43.30;;;27.98;;
26201;SDS011;13944;28.562;77.188;2022-07-23T14:09:22;38.28;;;28.05;;
26201;SDS011;13944;28.562;77.188;2022-07-23T14:11:49;34.75;;;28.48;;
26201;SDS011;13944;28.562;77.188;2022-07-23T14:14:16;33.35;;;26.70;;
26201;SDS011;13944;28.562;77.188;2022-07-23T14:16:43;37.65;;;27.77;;
26201;SDS011;13944;28.562;77.188;2022-07-23T14:19:12;38.85;;;29.48;;
26201;SDS011;13944;28.562;77.188;2022-07-23T14:21:39;41.03;;;29.48;;
26201;SDS011;13944;28.562;77.188;2022-07-23T14:24:05;39.80;;;29.58;;
26201;SDS011;13944;28.562;77.188;2022-07-23T14:26:32;41.85;;;30.25;;
26201;SDS011;13944;28.562;77.188;2022-07-23T14:28:58;39.80;;;30.15;;
26201;SDS011;13944;28.562;77.188;2022-07-23T14:31:27;36.47;;;28.35;;
26201;SDS011;13944;28.562;77.188;2022-07-23T14:33:54;40.63;;;28.55;;
26201;SDS011;13944;28.562;77.188;2022-07-23T14:36:20;35.28;;;27.85;;
26201;SDS011;13944;28.562;77.188;2022-07-23T14:38:48;37.45;;;27.83;;
26201;SDS011;13944;28.562;77.188;2022-07-23T14:41:15;35.00;;;27.35;;
26201;SDS011;13944;28.562;77.188;2022-07-23T14:43:41;32.25;;;27.75;;
26201;SDS011;13944;28.562;77.188;2022-07-23T14:46:08;37.33;;;28.70;;
26201;SDS011;13944;28.562;77.188;2022-07-23T14:48:35;38.30;;;28.95;;
26201;SDS011;13944;28.562;77.188;2022-07-23T14:51:02;33.38;;;26.38;;
26201;SDS011;13944;28.562;77.188;2022-07-23T14:53:29;33.15;;;26.50;;
26201;SDS011;13944;28.562;77.188;2022-07-23T14:55:56;33.00;;;26.05;;
26201;SDS011;13944;28.562;77.188;2022-07-23T14:58:23;35.08;;;27.40;;